sensor_id;sensor_type;location;lat;lon;timestamp;P1;durP1;ratioP1;P2;durP2;ratioP2
5967;SDS011;3010;51.028;4.170;2023-05-07T00:00:17;7.03;;;5.63;;
5967;SDS011;3010;51.028;4.170;2023-05-07T00:02:44;6.40;;;5.60;;
5967;SDS011;3010;51.028;4.170;2023-05-07T00:05:11;6.13;;;5.57;;
5967;SDS011;3010;51.028;4.170;2023-05-07T00:07:37;6.60;;;5.60;;
5967;SDS011;3010;51.028;4.170;2023-05-07T00:10:04;6.53;;;5.77;;
5967;SDS011;3010;51.028;4.170;2023-05-07T00:12:30;6.23;;;5.47;;
5967;SDS011;3010;51.028;4.170;2023-05-07T00:14:57;7.13;;;6.33;;
5967;SDS011;3010;51.028;4.170;2023-05-07T00:17:24;8.30;;;6.73;;
5967;SDS011;3010;51.028;4.170;2023-05-07T00:19:50;8.30;;;6.43;;
5967;SDS011;3010;51.028;4.170;2023-05-07T00:22:17;8.27;;;6.18;;
5967;SDS011;3010;51.028;4.170;2023-05-07T00:24:43;8.50;;;5.53;;
5967;SDS011;3010;51.028;4.170;2023-05-07T00:27:10;7.23;;;5.70;;
5967;SDS011;3010;51.028;4.170;2023-05-07T00:29:36;7.60;;;6.33;;
5967;SDS011;3010;51.028;4.170;2023-05-07T00:32:03;7.78;;;6.68;;
5967;SDS011;3010;51.028;4.170;2023-05-07T00:34:30;6.10;;;5.60;;
5967;SDS011;3010;51.028;4.170;2023-05-07T00:36:56;6.97;;;5.77;;
5967;SDS011;3010;51.028;4.170;2023-05-07T00:39:23;8.47;;;5.60;;
5967;SDS011;3010;51.028;4.170;2023-05-07T00:41:49;6.40;;;5.80;;
5967;SDS011;3010;51.028;4.170;2023-05-07T00:44:16;8.40;;;5.97;;
5967;SDS011;3010;51.028;4.170;2023-05-07T00:46:43;6.47;;;5.67;;
5967;SDS011;3010;51.028;4.170;2023-05-07T00:49:09;8.87;;;5.90;;
5967;SDS011;3010;51.028;4.170;2023-05-07T00:51:36;6.17;;;5.57;;
5967;SDS011;3010;51.028;4.170;2023-05-07T00:54:02;8.00;;;5.60;;
5967;SDS011;3010;51.028;4.170;2023-05-07T00:56:29;11.57;;;6.73;;
5967;SDS011;3010;51.028;4.170;2023-05-07T00:58:56;7.80;;;6.30;;
5967;SDS011;3010;51.028;4.170;2023-05-07T01:01:22;7.77;;;6.57;;
5967;SDS011;3010;51.028;4.170;2023-05-07T01:03:49;6.77;;;6.07;;
5967;SDS011;3010;51.028;4.170;2023-05-07T01:06:15;6.07;;;5.57;;
5967;SDS011;3010;51.028;4.170;2023-05-07T01:08:42;5.87;;;5.37;;
5967;SDS011;3010;51.028;4.170;2023-05-07T01:11:08;8.07;;;5.80;;
5967;SDS011;3010;51.028;4.170;2023-05-07T01:13:35;6.30;;;5.80;;
5967;SDS011;3010;51.028;4.170;2023-05-07T01:16:02;7.63;;;6.03;;
5967;SDS011;3010;51.028;4.170;2023-05-07T01:18:28;7.57;;;6.47;;
5967;SDS011;3010;51.028;4.170;2023-05-07T01:20:55;8.13;;;7.03;;
5967;SDS011;3010;51.028;4.170;2023-05-07T01:23:21;6.37;;;5.83;;
5967;SDS011;3010;51.028;4.170;2023-05-07T01:25:54;9.00;;;6.83;;
5967;SDS011;3010;51.028;4.170;2023-05-07T01:28:21;7.43;;;6.50;;
5967;SDS011;3010;51.028;4.170;2023-05-07T01:30:51;9.57;;;6.03;;
5967;SDS011;3010;51.028;4.170;2023-05-07T01:33:14;10.67;;;6.03;;
5967;SDS011;3010;51.028;4.170;2023-05-07T01:35:42;6.97;;;6.37;;
5967;SDS011;3010;51.028;4.170;2023-05-07T01:38:07;6.43;;;5.80;;
5967;SDS011;3010;51.028;4.170;2023-05-07T01:40:34;9.20;;;6.70;;
5967;SDS011;3010;51.028;4.170;2023-05-07T01:43:01;7.03;;;6.50;;
5967;SDS011;3010;51.028;4.170;2023-05-07T01:45:27;7.50;;;6.80;;
5967;SDS011;3010;51.028;4.170;2023-05-07T01:47:53;7.53;;;6.67;;
5967;SDS011;3010;51.028;4.170;2023-05-07T01:50:20;8.23;;;7.00;;
5967;SDS011;3010;51.028;4.170;2023-05-07T01:52:47;7.27;;;6.57;;
5967;SDS011;3010;51.028;4.170;2023-05-07T01:55:13;8.63;;;7.10;;
5967;SDS011;3010;51.028;4.170;2023-05-07T01:57:40;6.73;;;6.07;;
5967;SDS011;3010;51.028;4.170;2023-05-07T02:00:06;7.33;;;6.73;;
5967;SDS011;3010;51.028;4.170;2023-05-07T02:02:33;8.33;;;6.87;;
5967;SDS011;3010;51.028;4.170;2023-05-07T02:05:00;7.60;;;6.90;;
5967;SDS011;3010;51.028;4.170;2023-05-07T02:07:29;9.73;;;8.43;;
5967;SDS011;3010;51.028;4.170;2023-05-07T02:09:55;7.77;;;7.00;;
5967;SDS011;3010;51.028;4.170;2023-05-07T02:12:22;7.00;;;6.20;;
5967;SDS011;3010;51.028;4.170;2023-05-07T02:14:49;8.57;;;7.37;;
5967;SDS011;3010;51.028;4.170;2023-05-07T02:17:15;8.80;;;6.77;;
5967;SDS011;3010;51.028;4.170;2023-05-07T02:19:42;10.10;;;7.43;;
5967;SDS011;3010;51.028;4.170;2023-05-07T02:22:09;12.23;;;8.13;;
5967;SDS011;3010;51.028;4.170;2023-05-07T02:24:35;9.85;;;8.95;;
5967;SDS011;3010;51.028;4.170;2023-05-07T02:27:02;10.87;;;8.80;;
5967;SDS011;3010;51.028;4.170;2023-05-07T02:29:28;8.80;;;7.73;;
5967;SDS011;3010;51.028;4.170;2023-05-07T02:31:55;10.48;;;9.38;;
5967;SDS011;3010;51.028;4.170;2023-05-07T02:34:21;9.43;;;8.27;;
5967;SDS011;3010;51.028;4.170;2023-05-07T02:36:48;10.67;;;8.43;;
5967;SDS011;3010;51.028;4.170;2023-05-07T02:39:15;9.90;;;8.87;;
5967;SDS011;3010;51.028;4.170;2023-05-07T02:41:41;10.03;;;8.97;;
5967;SDS011;3010;51.028;4.170;2023-05-07T02:44:08;10.63;;;8.90;;
5967;SDS011;3010;51.028;4.170;2023-05-07T02:46:34;9.37;;;8.37;;
5967;SDS011;3010;51.028;4.170;2023-05-07T02:49:01;9.30;;;8.40;;
5967;SDS011;3010;51.028;4.170;2023-05-07T02:51:27;10.70;;;8.80;;
5967;SDS011;3010;51.028;4.170;2023-05-07T02:53:54;10.20;;;8.23;;
5967;SDS011;3010;51.028;4.170;2023-05-07T02:56:21;9.40;;;8.50;;
5967;SDS011;3010;51.028;4.170;2023-05-07T02:58:47;10.00;;;9.00;;
5967;SDS011;3010;51.028;4.170;2023-05-07T03:01:14;10.47;;;8.90;;
5967;SDS011;3010;51.028;4.170;2023-05-07T03:03:40;12.63;;;8.83;;
5967;SDS011;3010;51.028;4.170;2023-05-07T03:06:07;9.50;;;8.60;;
5967;SDS011;3010;51.028;4.170;2023-05-07T03:08:34;13.77;;;11.05;;
5967;SDS011;3010;51.028;4.170;2023-05-07T03:11:00;10.77;;;9.73;;
5967;SDS011;3010;51.028;4.170;2023-05-07T03:13:27;11.10;;;10.00;;
5967;SDS011;3010;51.028;4.170;2023-05-07T03:15:53;9.60;;;8.70;;
5967;SDS011;3010;51.028;4.170;2023-05-07T03:18:20;11.50;;;10.30;;
5967;SDS011;3010;51.028;4.170;2023-05-07T03:20:47;9.83;;;8.83;;
5967;SDS011;3010;51.028;4.170;2023-05-07T03:23:13;12.53;;;9.37;;
5967;SDS011;3010;51.028;4.170;2023-05-07T03:25:40;10.70;;;9.13;;
5967;SDS011;3010;51.028;4.170;2023-05-07T03:28:06;11.90;;;8.93;;
5967;SDS011;3010;51.028;4.170;2023-05-07T03:30:33;9.77;;;8.80;;
5967;SDS011;3010;51.028;4.170;2023-05-07T03:33:00;11.37;;;10.27;;
5967;SDS011;3010;51.028;4.170;2023-05-07T03:35:26;10.87;;;8.90;;
5967;SDS011;3010;51.028;4.170;2023-05-07T03:37:53;13.10;;;8.90;;
5967;SDS011;3010;51.028;4.170;2023-05-07T03:40:19;13.00;;;10.38;;
5967;SDS011;3010;51.028;4.170;2023-05-07T03:42:46;10.43;;;9.00;;
5967;SDS011;3010;51.028;4.170;2023-05-07T03:45:12;10.07;;;9.07;;
5967;SDS011;3010;51.028;4.170;2023-05-07T03:47:39;10.47;;;8.87;;
5967;SDS011;3010;51.028;4.170;2023-05-07T03:50:06;11.83;;;10.00;;
5967;SDS011;3010;51.028;4.170;2023-05-07T03:52:32;10.50;;;9.40;;
5967;SDS011;3010;51.028;4.170;2023-05-07T03:55:00;10.80;;;8.97;;
5967;SDS011;3010;51.028;4.170;2023-05-07T03:57:25;9.33;;;8.43;;
5967;SDS011;3010;51.028;4.170;2023-05-07T03:59:52;9.13;;;8.33;;
5967;SDS011;3010;51.028;4.170;2023-05-07T04:02:19;10.90;;;8.80;;
5967;SDS011;3010;51.028;4.170;2023-05-07T04:04:45;12.87;;;10.03;;
5967;SDS011;3010;51.028;4.170;2023-05-07T04:07:12;10.20;;;9.10;;
5967;SDS011;3010;51.028;4.170;2023-05-07T04:09:38;9.73;;;8.73;;
5967;SDS011;3010;51.028;4.170;2023-05-07T04:12:05;12.20;;;9.27;;
5967;SDS011;3010;51.028;4.170;2023-05-07T04:14:32;14.20;;;10.70;;
5967;SDS011;3010;51.028;4.170;2023-05-07T04:16:58;11.87;;;9.60;;
5967;SDS011;3010;51.028;4.170;2023-05-07T04:19:25;10.03;;;9.13;;
5967;SDS011;3010;51.028;4.170;2023-05-07T04:21:51;10.80;;;9.00;;
5967;SDS011;3010;51.028;4.170;2023-05-07T04:24:18;10.37;;;9.47;;
5967;SDS011;3010;51.028;4.170;2023-05-07T04:26:44;12.43;;;9.80;;
5967;SDS011;3010;51.028;4.170;2023-05-07T04:29:11;10.83;;;9.30;;
5967;SDS011;3010;51.028;4.170;2023-05-07T04:31:38;10.37;;;9.40;;
5967;SDS011;3010;51.028;4.170;2023-05-07T04:34:04;9.67;;;8.77;;
5967;SDS011;3010;51.028;4.170;2023-05-07T04:36:31;12.07;;;10.93;;
5967;SDS011;3010;51.028;4.170;2023-05-07T04:38:57;10.60;;;9.80;;
5967;SDS011;3010;51.028;4.170;2023-05-07T04:41:24;9.60;;;8.70;;
5967;SDS011;3010;51.028;4.170;2023-05-07T04:43:51;12.10;;;9.67;;
5967;SDS011;3010;51.028;4.170;2023-05-07T04:46:17;11.20;;;10.10;;
5967;SDS011;3010;51.028;4.170;2023-05-07T04:48:44;9.80;;;8.90;;
5967;SDS011;3010;51.028;4.170;2023-05-07T04:51:10;9.87;;;8.97;;
5967;SDS011;3010;51.028;4.170;2023-05-07T04:53:37;10.97;;;9.43;;
5967;SDS011;3010;51.028;4.170;2023-05-07T04:56:04;9.60;;;8.80;;
5967;SDS011;3010;51.028;4.170;2023-05-07T04:58:30;10.80;;;9.80;;
5967;SDS011;3010;51.028;4.170;2023-05-07T05:00:57;9.97;;;9.03;;
5967;SDS011;3010;51.028;4.170;2023-05-07T05:03:23;10.23;;;9.20;;
5967;SDS011;3010;51.028;4.170;2023-05-07T05:05:50;12.13;;;11.05;;
5967;SDS011;3010;51.028;4.170;2023-05-07T05:08:16;11.07;;;9.93;;
5967;SDS011;3010;51.028;4.170;2023-05-07T05:10:43;10.23;;;9.17;;
5967;SDS011;3010;51.028;4.170;2023-05-07T05:13:10;10.87;;;9.83;;
5967;SDS011;3010;51.028;4.170;2023-05-07T05:15:36;10.63;;;9.53;;
5967;SDS011;3010;51.028;4.170;2023-05-07T05:18:03;12.00;;;10.40;;
5967;SDS011;3010;51.028;4.170;2023-05-07T05:20:29;11.30;;;9.37;;
5967;SDS011;3010;51.028;4.170;2023-05-07T05:22:56;13.93;;;12.37;;
5967;SDS011;3010;51.028;4.170;2023-05-07T05:25:23;11.53;;;10.53;;
5967;SDS011;3010;51.028;4.170;2023-05-07T05:27:49;13.87;;;10.90;;
5967;SDS011;3010;51.028;4.170;2023-05-07T05:30:16;11.57;;;10.47;;
5967;SDS011;3010;51.028;4.170;2023-05-07T05:32:42;11.97;;;10.87;;
5967;SDS011;3010;51.028;4.170;2023-05-07T05:35:09;11.60;;;10.50;;
5967;SDS011;3010;51.028;4.170;2023-05-07T05:37:36;12.20;;;10.30;;
5967;SDS011;3010;51.028;4.170;2023-05-07T05:40:02;19.23;;;12.00;;
5967;SDS011;3010;51.028;4.170;2023-05-07T05:42:29;11.00;;;9.97;;
5967;SDS011;3010;51.028;4.170;2023-05-07T05:44:55;15.07;;;11.00;;
5967;SDS011;3010;51.028;4.170;2023-05-07T05:47:22;14.27;;;11.13;;
5967;SDS011;3010;51.028;4.170;2023-05-07T05:49:49;11.73;;;10.60;;
5967;SDS011;3010;51.028;4.170;2023-05-07T05:52:15;12.13;;;10.73;;
5967;SDS011;3010;51.028;4.170;2023-05-07T05:54:42;13.13;;;10.33;;
5967;SDS011;3010;51.028;4.170;2023-05-07T05:57:08;11.13;;;9.40;;
5967;SDS011;3010;51.028;4.170;2023-05-07T05:59:35;10.40;;;9.47;;
5967;SDS011;3010;51.028;4.170;2023-05-07T06:02:02;11.83;;;10.67;;
5967;SDS011;3010;51.028;4.170;2023-05-07T06:04:28;11.93;;;10.77;;
5967;SDS011;3010;51.028;4.170;2023-05-07T06:06:55;12.03;;;10.80;;
5967;SDS011;3010;51.028;4.170;2023-05-07T06:09:21;12.80;;;11.60;;
5967;SDS011;3010;51.028;4.170;2023-05-07T06:11:48;14.55;;;13.13;;
5967;SDS011;3010;51.028;4.170;2023-05-07T06:14:14;12.33;;;11.03;;
5967;SDS011;3010;51.028;4.170;2023-05-07T06:16:41;12.30;;;10.97;;
5967;SDS011;3010;51.028;4.170;2023-05-07T06:19:08;14.83;;;11.27;;
5967;SDS011;3010;51.028;4.170;2023-05-07T06:21:34;11.60;;;10.50;;
5967;SDS011;3010;51.028;4.170;2023-05-07T06:24:01;10.93;;;9.83;;
5967;SDS011;3010;51.028;4.170;2023-05-07T06:26:27;11.03;;;9.87;;
5967;SDS011;3010;51.028;4.170;2023-05-07T06:28:54;12.27;;;11.07;;
5967;SDS011;3010;51.028;4.170;2023-05-07T06:31:21;12.37;;;10.55;;
5967;SDS011;3010;51.028;4.170;2023-05-07T06:33:48;9.77;;;8.83;;
5967;SDS011;3010;51.028;4.170;2023-05-07T06:36:14;9.90;;;8.90;;
5967;SDS011;3010;51.028;4.170;2023-05-07T06:38:41;9.37;;;8.47;;
5967;SDS011;3010;51.028;4.170;2023-05-07T06:41:07;11.37;;;7.80;;
5967;SDS011;3010;51.028;4.170;2023-05-07T06:43:34;9.93;;;8.43;;
5967;SDS011;3010;51.028;4.170;2023-05-07T06:46:00;8.07;;;7.47;;
5967;SDS011;3010;51.028;4.170;2023-05-07T06:48:27;10.27;;;8.63;;
5967;SDS011;3010;51.028;4.170;2023-05-07T06:50:53;10.47;;;7.60;;
5967;SDS011;3010;51.028;4.170;2023-05-07T06:53:20;8.70;;;7.83;;
5967;SDS011;3010;51.028;4.170;2023-05-07T06:55:47;9.37;;;7.57;;
5967;SDS011;3010;51.028;4.170;2023-05-07T06:58:13;12.53;;;6.57;;
5967;SDS011;3010;51.028;4.170;2023-05-07T07:00:40;7.23;;;6.33;;
5967;SDS011;3010;51.028;4.170;2023-05-07T07:03:06;12.23;;;7.20;;
5967;SDS011;3010;51.028;4.170;2023-05-07T07:05:33;11.77;;;7.67;;
5967;SDS011;3010;51.028;4.170;2023-05-07T07:07:59;9.37;;;7.97;;
5967;SDS011;3010;51.028;4.170;2023-05-07T07:10:26;9.25;;;8.35;;
5967;SDS011;3010;51.028;4.170;2023-05-07T07:12:53;12.93;;;7.73;;
5967;SDS011;3010;51.028;4.170;2023-05-07T07:15:19;13.52;;;9.20;;
5967;SDS011;3010;51.028;4.170;2023-05-07T07:17:49;9.87;;;7.50;;
5967;SDS011;3010;51.028;4.170;2023-05-07T07:20:15;11.57;;;8.17;;
5967;SDS011;3010;51.028;4.170;2023-05-07T07:22:42;14.93;;;9.13;;
5967;SDS011;3010;51.028;4.170;2023-05-07T07:25:08;14.47;;;9.17;;
5967;SDS011;3010;51.028;4.170;2023-05-07T07:27:35;20.30;;;11.87;;
5967;SDS011;3010;51.028;4.170;2023-05-07T07:30:02;20.97;;;12.00;;
5967;SDS011;3010;51.028;4.170;2023-05-07T07:32:28;27.27;;;13.80;;
5967;SDS011;3010;51.028;4.170;2023-05-07T07:34:55;16.53;;;10.30;;
5967;SDS011;3010;51.028;4.170;2023-05-07T07:37:21;12.93;;;9.50;;
5967;SDS011;3010;51.028;4.170;2023-05-07T07:39:48;9.73;;;7.53;;
5967;SDS011;3010;51.028;4.170;2023-05-07T07:42:15;7.93;;;7.23;;
5967;SDS011;3010;51.028;4.170;2023-05-07T07:44:41;11.03;;;8.60;;
5967;SDS011;3010;51.028;4.170;2023-05-07T07:47:08;14.10;;;9.47;;
5967;SDS011;3010;51.028;4.170;2023-05-07T07:49:34;18.30;;;12.97;;
5967;SDS011;3010;51.028;4.170;2023-05-07T07:52:01;21.27;;;14.30;;
5967;SDS011;3010;51.028;4.170;2023-05-07T07:54:28;18.90;;;13.23;;
5967;SDS011;3010;51.028;4.170;2023-05-07T07:56:54;26.40;;;16.77;;
5967;SDS011;3010;51.028;4.170;2023-05-07T07:59:21;23.47;;;16.00;;
5967;SDS011;3010;51.028;4.170;2023-05-07T08:01:50;21.27;;;14.40;;
5967;SDS011;3010;51.028;4.170;2023-05-07T08:04:14;11.73;;;7.83;;
5967;SDS011;3010;51.028;4.170;2023-05-07T08:06:41;6.97;;;6.27;;
5967;SDS011;3010;51.028;4.170;2023-05-07T08:09:07;10.70;;;6.87;;
5967;SDS011;3010;51.028;4.170;2023-05-07T08:11:34;7.83;;;6.40;;
5967;SDS011;3010;51.028;4.170;2023-05-07T08:14:00;6.40;;;5.90;;
5967;SDS011;3010;51.028;4.170;2023-05-07T08:16:27;15.47;;;11.77;;
5967;SDS011;3010;51.028;4.170;2023-05-07T08:18:54;10.17;;;8.10;;
5967;SDS011;3010;51.028;4.170;2023-05-07T08:21:20;9.53;;;7.10;;
5967;SDS011;3010;51.028;4.170;2023-05-07T08:23:47;8.63;;;6.87;;
5967;SDS011;3010;51.028;4.170;2023-05-07T08:26:13;7.60;;;6.43;;
5967;SDS011;3010;51.028;4.170;2023-05-07T08:28:40;6.80;;;6.20;;
5967;SDS011;3010;51.028;4.170;2023-05-07T08:31:07;12.57;;;9.90;;
5967;SDS011;3010;51.028;4.170;2023-05-07T08:33:33;16.10;;;12.70;;
5967;SDS011;3010;51.028;4.170;2023-05-07T08:36:00;18.67;;;15.33;;
5967;SDS011;3010;51.028;4.170;2023-05-07T08:38:26;21.25;;;15.43;;
5967;SDS011;3010;51.028;4.170;2023-05-07T08:40:53;11.73;;;8.77;;
5967;SDS011;3010;51.028;4.170;2023-05-07T08:43:20;9.83;;;8.03;;
5967;SDS011;3010;51.028;4.170;2023-05-07T08:45:46;10.07;;;7.90;;
5967;SDS011;3010;51.028;4.170;2023-05-07T08:48:16;10.27;;;9.23;;
5967;SDS011;3010;51.028;4.170;2023-05-07T08:50:42;14.17;;;11.77;;
5967;SDS011;3010;51.028;4.170;2023-05-07T08:53:09;16.95;;;15.13;;
5967;SDS011;3010;51.028;4.170;2023-05-07T08:55:35;9.70;;;8.47;;
5967;SDS011;3010;51.028;4.170;2023-05-07T08:58:02;8.80;;;8.00;;
5967;SDS011;3010;51.028;4.170;2023-05-07T09:00:29;11.10;;;6.80;;
5967;SDS011;3010;51.028;4.170;2023-05-07T09:02:55;7.93;;;6.30;;
5967;SDS011;3010;51.028;4.170;2023-05-07T09:05:22;6.90;;;6.40;;
5967;SDS011;3010;51.028;4.170;2023-05-07T09:07:48;7.60;;;7.10;;
5967;SDS011;3010;51.028;4.170;2023-05-07T09:10:15;6.43;;;6.00;;
5967;SDS011;3010;51.028;4.170;2023-05-07T09:12:41;7.20;;;6.60;;
5967;SDS011;3010;51.028;4.170;2023-05-07T09:15:08;5.70;;;5.30;;
5967;SDS011;3010;51.028;4.170;2023-05-07T09:17:35;5.37;;;4.87;;
5967;SDS011;3010;51.028;4.170;2023-05-07T09:20:02;4.70;;;4.40;;
5967;SDS011;3010;51.028;4.170;2023-05-07T09:22:30;5.67;;;5.13;;
5967;SDS011;3010;51.028;4.170;2023-05-07T09:24:54;5.90;;;5.40;;
5967;SDS011;3010;51.028;4.170;2023-05-07T09:27:21;6.60;;;5.75;;
5967;SDS011;3010;51.028;4.170;2023-05-07T09:29:48;5.53;;;5.03;;
5967;SDS011;3010;51.028;4.170;2023-05-07T09:32:14;6.43;;;4.87;;
5967;SDS011;3010;51.028;4.170;2023-05-07T09:34:41;6.37;;;5.33;;
5967;SDS011;3010;51.028;4.170;2023-05-07T09:37:07;5.97;;;5.47;;
5967;SDS011;3010;51.028;4.170;2023-05-07T09:39:41;5.57;;;5.13;;
5967;SDS011;3010;51.028;4.170;2023-05-07T09:42:07;6.62;;;5.68;;
5967;SDS011;3010;51.028;4.170;2023-05-07T09:44:34;6.95;;;6.28;;
5967;SDS011;3010;51.028;4.170;2023-05-07T09:47:00;6.27;;;5.67;;
5967;SDS011;3010;51.028;4.170;2023-05-07T09:49:28;7.47;;;5.67;;
5967;SDS011;3010;51.028;4.170;2023-05-07T09:51:53;5.87;;;5.33;;
5967;SDS011;3010;51.028;4.170;2023-05-07T09:54:19;6.37;;;5.80;;
5967;SDS011;3010;51.028;4.170;2023-05-07T09:56:47;7.23;;;5.83;;
5967;SDS011;3010;51.028;4.170;2023-05-07T09:59:13;5.83;;;5.50;;
5967;SDS011;3010;51.028;4.170;2023-05-07T10:01:43;7.87;;;5.80;;
5967;SDS011;3010;51.028;4.170;2023-05-07T10:04:06;6.07;;;5.47;;
5967;SDS011;3010;51.028;4.170;2023-05-07T10:06:32;7.17;;;6.47;;
5967;SDS011;3010;51.028;4.170;2023-05-07T10:08:59;6.83;;;6.30;;
5967;SDS011;3010;51.028;4.170;2023-05-07T10:11:26;6.83;;;6.17;;
5967;SDS011;3010;51.028;4.170;2023-05-07T10:13:52;8.00;;;7.17;;
5967;SDS011;3010;51.028;4.170;2023-05-07T10:16:19;7.73;;;7.10;;
5967;SDS011;3010;51.028;4.170;2023-05-07T10:18:45;6.80;;;6.30;;
5967;SDS011;3010;51.028;4.170;2023-05-07T10:21:19;8.07;;;6.43;;
5967;SDS011;3010;51.028;4.170;2023-05-07T10:23:45;7.47;;;6.27;;
5967;SDS011;3010;51.028;4.170;2023-05-07T10:26:11;6.70;;;5.83;;
5967;SDS011;3010;51.028;4.170;2023-05-07T10:28:38;7.47;;;6.67;;
5967;SDS011;3010;51.028;4.170;2023-05-07T10:31:10;7.10;;;6.57;;
5967;SDS011;3010;51.028;4.170;2023-05-07T10:33:34;6.57;;;5.90;;
5967;SDS011;3010;51.028;4.170;2023-05-07T10:36:01;6.70;;;6.10;;
5967;SDS011;3010;51.028;4.170;2023-05-07T10:38:27;6.63;;;6.10;;
5967;SDS011;3010;51.028;4.170;2023-05-07T10:40:54;5.90;;;5.50;;
5967;SDS011;3010;51.028;4.170;2023-05-07T10:43:20;6.72;;;6.07;;
5967;SDS011;3010;51.028;4.170;2023-05-07T10:46:30;6.65;;;6.07;;
5967;SDS011;3010;51.028;4.170;2023-05-07T10:48:35;6.70;;;6.20;;
5967;SDS011;3010;51.028;4.170;2023-05-07T10:51:18;5.97;;;5.40;;
5967;SDS011;3010;51.028;4.170;2023-05-07T10:53:46;6.37;;;5.87;;
5967;SDS011;3010;51.028;4.170;2023-05-07T10:58:45;5.70;;;5.20;;
5967;SDS011;3010;51.028;4.170;2023-05-07T11:01:11;5.27;;;4.83;;
5967;SDS011;3010;51.028;4.170;2023-05-07T11:04:13;5.07;;;4.40;;
5967;SDS011;3010;51.028;4.170;2023-05-07T11:06:08;5.37;;;4.87;;
5967;SDS011;3010;51.028;4.170;2023-05-07T11:11:19;5.80;;;5.40;;
5967;SDS011;3010;51.028;4.170;2023-05-07T11:13:46;5.53;;;5.07;;
5967;SDS011;3010;51.028;4.170;2023-05-07T11:16:18;5.10;;;4.73;;
5967;SDS011;3010;51.028;4.170;2023-05-07T11:18:51;4.30;;;4.10;;
5967;SDS011;3010;51.028;4.170;2023-05-07T11:24:08;4.50;;;4.20;;
5967;SDS011;3010;51.028;4.170;2023-05-07T11:26:46;4.63;;;4.17;;
5967;SDS011;3010;51.028;4.170;2023-05-07T11:29:19;3.77;;;3.57;;
5967;SDS011;3010;51.028;4.170;2023-05-07T11:31:51;4.60;;;4.20;;
5967;SDS011;3010;51.028;4.170;2023-05-07T11:34:15;4.43;;;4.03;;
5967;SDS011;3010;51.028;4.170;2023-05-07T11:36:41;4.87;;;3.80;;
5967;SDS011;3010;51.028;4.170;2023-05-07T11:39:22;4.60;;;4.30;;
5967;SDS011;3010;51.028;4.170;2023-05-07T11:41:35;4.73;;;4.07;;
5967;SDS011;3010;51.028;4.170;2023-05-07T11:44:01;4.30;;;4.00;;
5967;SDS011;3010;51.028;4.170;2023-05-07T11:46:28;4.23;;;3.87;;
5967;SDS011;3010;51.028;4.170;2023-05-07T11:48:54;4.30;;;4.00;;
5967;SDS011;3010;51.028;4.170;2023-05-07T11:51:21;4.07;;;3.77;;
5967;SDS011;3010;51.028;4.170;2023-05-07T11:53:47;3.60;;;3.40;;
5967;SDS011;3010;51.028;4.170;2023-05-07T11:56:14;4.43;;;4.03;;
5967;SDS011;3010;51.028;4.170;2023-05-07T11:58:41;4.27;;;3.90;;
5967;SDS011;3010;51.028;4.170;2023-05-07T12:01:07;4.20;;;3.90;;
5967;SDS011;3010;51.028;4.170;2023-05-07T12:03:33;3.53;;;3.37;;
5967;SDS011;3010;51.028;4.170;2023-05-07T12:06:00;3.87;;;3.60;;
5967;SDS011;3010;51.028;4.170;2023-05-07T12:08:27;3.30;;;3.20;;
5967;SDS011;3010;51.028;4.170;2023-05-07T12:10:54;3.83;;;3.63;;
5967;SDS011;3010;51.028;4.170;2023-05-07T12:13:20;3.37;;;3.27;;
5967;SDS011;3010;51.028;4.170;2023-05-07T12:15:46;3.60;;;3.40;;
5967;SDS011;3010;51.028;4.170;2023-05-07T12:18:13;3.30;;;3.20;;
5967;SDS011;3010;51.028;4.170;2023-05-07T12:20:39;3.40;;;3.20;;
5967;SDS011;3010;51.028;4.170;2023-05-07T12:23:06;3.87;;;3.60;;
5967;SDS011;3010;51.028;4.170;2023-05-07T12:25:36;3.83;;;3.07;;
5967;SDS011;3010;51.028;4.170;2023-05-07T12:28:02;3.23;;;3.13;;
5967;SDS011;3010;51.028;4.170;2023-05-07T12:30:29;2.93;;;2.83;;
5967;SDS011;3010;51.028;4.170;2023-05-07T12:32:55;3.50;;;3.30;;
5967;SDS011;3010;51.028;4.170;2023-05-07T12:35:28;2.60;;;2.40;;
5967;SDS011;3010;51.028;4.170;2023-05-07T12:37:58;2.63;;;2.53;;
5967;SDS011;3010;51.028;4.170;2023-05-07T12:40:24;2.60;;;2.50;;
5967;SDS011;3010;51.028;4.170;2023-05-07T12:42:52;3.00;;;2.90;;
5967;SDS011;3010;51.028;4.170;2023-05-07T12:45:17;2.57;;;2.47;;
5967;SDS011;3010;51.028;4.170;2023-05-07T12:47:44;3.60;;;1.93;;
5967;SDS011;3010;51.028;4.170;2023-05-07T12:50:10;2.20;;;2.10;;
5967;SDS011;3010;51.028;4.170;2023-05-07T12:52:37;2.43;;;2.30;;
5967;SDS011;3010;51.028;4.170;2023-05-07T12:55:07;3.13;;;2.30;;
5967;SDS011;3010;51.028;4.170;2023-05-07T12:57:40;2.30;;;2.10;;
5967;SDS011;3010;51.028;4.170;2023-05-07T13:00:09;2.50;;;2.40;;
5967;SDS011;3010;51.028;4.170;2023-05-07T13:02:39;2.30;;;2.30;;
5967;SDS011;3010;51.028;4.170;2023-05-07T13:05:05;2.50;;;2.40;;
5967;SDS011;3010;51.028;4.170;2023-05-07T13:07:31;2.57;;;2.37;;
5967;SDS011;3010;51.028;4.170;2023-05-07T13:09:58;2.62;;;2.53;;
5967;SDS011;3010;51.028;4.170;2023-05-07T13:12:24;2.40;;;2.30;;
5967;SDS011;3010;51.028;4.170;2023-05-07T13:14:51;2.50;;;2.40;;
5967;SDS011;3010;51.028;4.170;2023-05-07T13:17:18;3.15;;;2.95;;
5967;SDS011;3010;51.028;4.170;2023-05-07T13:19:44;2.80;;;2.70;;
5967;SDS011;3010;51.028;4.170;2023-05-07T13:22:11;3.30;;;3.10;;
5967;SDS011;3010;51.028;4.170;2023-05-07T13:24:37;2.93;;;2.83;;
5967;SDS011;3010;51.028;4.170;2023-05-07T13:27:04;3.40;;;3.03;;
5967;SDS011;3010;51.028;4.170;2023-05-07T13:29:31;3.53;;;3.27;;
5967;SDS011;3010;51.028;4.170;2023-05-07T13:31:57;3.50;;;3.30;;
5967;SDS011;3010;51.028;4.170;2023-05-07T13:34:24;3.13;;;3.03;;
5967;SDS011;3010;51.028;4.170;2023-05-07T13:36:50;3.20;;;2.77;;
5967;SDS011;3010;51.028;4.170;2023-05-07T13:39:17;3.00;;;2.97;;
5967;SDS011;3010;51.028;4.170;2023-05-07T13:41:44;3.27;;;3.10;;
5967;SDS011;3010;51.028;4.170;2023-05-07T13:44:10;3.40;;;3.30;;
5967;SDS011;3010;51.028;4.170;2023-05-07T13:46:37;3.27;;;3.10;;
5967;SDS011;3010;51.028;4.170;2023-05-07T13:49:03;3.60;;;3.37;;
5967;SDS011;3010;51.028;4.170;2023-05-07T13:51:30;3.50;;;3.30;;
5967;SDS011;3010;51.028;4.170;2023-05-07T13:53:56;3.73;;;3.60;;
5967;SDS011;3010;51.028;4.170;2023-05-07T13:56:23;3.20;;;2.97;;
5967;SDS011;3010;51.028;4.170;2023-05-07T13:58:50;3.10;;;3.00;;
5967;SDS011;3010;51.028;4.170;2023-05-07T14:01:16;3.50;;;3.20;;
5967;SDS011;3010;51.028;4.170;2023-05-07T14:03:43;3.80;;;3.60;;
5967;SDS011;3010;51.028;4.170;2023-05-07T14:06:09;3.78;;;3.45;;
5967;SDS011;3010;51.028;4.170;2023-05-07T14:08:36;3.23;;;3.13;;
5967;SDS011;3010;51.028;4.170;2023-05-07T14:11:03;3.78;;;3.67;;
5967;SDS011;3010;51.028;4.170;2023-05-07T14:13:29;3.17;;;3.07;;
5967;SDS011;3010;51.028;4.170;2023-05-07T14:15:56;2.97;;;2.73;;
5967;SDS011;3010;51.028;4.170;2023-05-07T14:18:22;3.40;;;3.23;;
5967;SDS011;3010;51.028;4.170;2023-05-07T14:20:49;3.23;;;3.13;;
5967;SDS011;3010;51.028;4.170;2023-05-07T14:23:15;3.50;;;3.40;;
5967;SDS011;3010;51.028;4.170;2023-05-07T14:25:42;5.03;;;4.13;;
5967;SDS011;3010;51.028;4.170;2023-05-07T14:28:09;4.23;;;3.93;;
5967;SDS011;3010;51.028;4.170;2023-05-07T14:30:35;4.53;;;4.23;;
5967;SDS011;3010;51.028;4.170;2023-05-07T14:33:02;4.33;;;4.17;;
5967;SDS011;3010;51.028;4.170;2023-05-07T14:35:28;5.18;;;4.80;;
5967;SDS011;3010;51.028;4.170;2023-05-07T14:37:55;4.20;;;4.00;;
5967;SDS011;3010;51.028;4.170;2023-05-07T14:40:22;4.30;;;4.00;;
5967;SDS011;3010;51.028;4.170;2023-05-07T14:42:48;4.35;;;3.95;;
5967;SDS011;3010;51.028;4.170;2023-05-07T14:45:15;3.37;;;3.27;;
5967;SDS011;3010;51.028;4.170;2023-05-07T14:47:41;3.17;;;3.00;;
5967;SDS011;3010;51.028;4.170;2023-05-07T14:50:08;3.33;;;3.13;;
5967;SDS011;3010;51.028;4.170;2023-05-07T14:52:35;3.40;;;3.30;;
5967;SDS011;3010;51.028;4.170;2023-05-07T14:55:01;3.10;;;3.00;;
5967;SDS011;3010;51.028;4.170;2023-05-07T14:57:28;3.50;;;3.30;;
5967;SDS011;3010;51.028;4.170;2023-05-07T14:59:54;4.07;;;3.83;;
5967;SDS011;3010;51.028;4.170;2023-05-07T15:02:21;3.20;;;3.10;;
5967;SDS011;3010;51.028;4.170;2023-05-07T15:04:47;4.33;;;4.03;;
5967;SDS011;3010;51.028;4.170;2023-05-07T15:07:14;3.83;;;3.53;;
5967;SDS011;3010;51.028;4.170;2023-05-07T15:09:41;3.83;;;3.53;;
5967;SDS011;3010;51.028;4.170;2023-05-07T15:12:07;3.90;;;3.70;;